RAM596 GVAC-GMMN
Flight info
| Callsign | RAM596 |
|---|---|
| Flight time | N/A |
| Altitude | 37000 |
| Route | PINPO UW11 GUNET DCT PE DCT MAURI L660 SOLNA UA600 ADM UG850 MAK UB11 MABAP UR722 FOBAC |
| Aircraft | B38M/M-SDE1FGHILORVWXY/HB1 |
Departure
| Time | 2026-04-18 09:48 |
|---|---|
| Airport | Amílcar Cabral International Airport (GVAC) |
Arrival
| Time | N/A |
|---|---|
| Airport | Mohammed V International Airport (GMMN) |
| Time | Latitude | Longitude | Altitude | Speed | Heading |
|---|---|---|---|---|---|
| 2026-04-18 09:31 | 16.73365 | -22.94498 | 203 ft | 0 kts | 90° |
| 2026-04-18 09:39 | 16.73365 | -22.94505 | 203 ft | 3 kts | 90° |
| 2026-04-18 09:39 | 16.73365 | -22.94527 | 203 ft | 3 kts | 90° |
| 2026-04-18 09:39 | 16.73365 | -22.94549 | 203 ft | 3 kts | 90° |
| 2026-04-18 09:39 | 16.73365 | -22.94569 | 209 ft | 3 kts | 94° |
| 2026-04-18 09:40 | 16.73370 | -22.94587 | 209 ft | 3 kts | 136° |
| 2026-04-18 09:40 | 16.73386 | -22.94595 | 207 ft | 3 kts | 175° |
| 2026-04-18 09:40 | 16.73401 | -22.94596 | 203 ft | 1 kts | 180° |
| 2026-04-18 09:40 | 16.73403 | -22.94596 | 203 ft | 0 kts | 180° |
| 2026-04-18 09:42 | 16.73386 | -22.94595 | 207 ft | 5 kts | 180° |
| 2026-04-18 09:42 | 16.73338 | -22.94595 | 203 ft | 8 kts | 179° |
| 2026-04-18 09:43 | 16.73274 | -22.94595 | 206 ft | 10 kts | 179° |
| 2026-04-18 09:43 | 16.73196 | -22.94594 | 212 ft | 12 kts | 179° |
| 2026-04-18 09:43 | 16.73112 | -22.94594 | 203 ft | 11 kts | 185° |
| 2026-04-18 09:43 | 16.73066 | -22.94636 | 212 ft | 10 kts | 239° |
| 2026-04-18 09:44 | 16.73019 | -22.94691 | 206 ft | 11 kts | 195° |
| 2026-04-18 09:44 | 16.72919 | -22.94691 | 193 ft | 19 kts | 179° |
| 2026-04-18 09:44 | 16.72773 | -22.94690 | 191 ft | 22 kts | 180° |
| 2026-04-18 09:44 | 16.72612 | -22.94689 | 186 ft | 24 kts | 180° |
| 2026-04-18 09:45 | 16.72465 | -22.94688 | 183 ft | 12 kts | 180° |
| 2026-04-18 09:45 | 16.72410 | -22.94738 | 188 ft | 12 kts | 263° |
| 2026-04-18 09:45 | 16.72403 | -22.94823 | 188 ft | 12 kts | 254° |
| 2026-04-18 09:45 | 16.72354 | -22.94876 | 192 ft | 11 kts | 195° |
| 2026-04-18 09:46 | 16.72268 | -22.94863 | 191 ft | 13 kts | 139° |
| 2026-04-18 09:46 | 16.72207 | -22.94811 | 190 ft | 11 kts | 175° |
| 2026-04-18 09:46 | 16.72178 | -22.94866 | 184 ft | 11 kts | 299° |
| 2026-04-18 09:46 | 16.72240 | -22.94884 | 187 ft | 0 kts | 359° |
| 2026-04-18 09:47 | 16.72242 | -22.94884 | 186 ft | 1 kts | 359° |
| 2026-04-18 09:47 | 16.72353 | -22.94885 | 192 ft | 48 kts | 359° |
| 2026-04-18 09:47 | 16.72945 | -22.94885 | 194 ft | 120 kts | 359° |
| 2026-04-18 09:47 | 16.73947 | -22.94902 | 392 ft | 158 kts | 359° |
| 2026-04-18 09:48 | 16.75082 | -22.94893 | 1066 ft | 167 kts | 0° |
| 2026-04-18 09:48 | 16.76289 | -22.94887 | 1788 ft | 177 kts | 359° |
| 2026-04-18 09:48 | 16.77533 | -22.94885 | 2577 ft | 180 kts | 359° |
| 2026-04-18 09:48 | 16.78818 | -22.94883 | 3238 ft | 190 kts | 358° |
| 2026-04-18 09:49 | 16.80180 | -22.94879 | 3863 ft | 198 kts | 358° |
| 2026-04-18 09:49 | 16.81561 | -22.94877 | 4614 ft | 201 kts | 357° |
| 2026-04-18 09:49 | 16.82979 | -22.94876 | 5303 ft | 209 kts | 356° |
| 2026-04-18 09:49 | 16.84511 | -22.94772 | 5739 ft | 236 kts | 9° |
| 2026-04-18 09:50 | 16.86096 | -22.94033 | 6081 ft | 268 kts | 41° |
| 2026-04-18 09:50 | 16.87163 | -22.92439 | 6790 ft | 277 kts | 71° |
| 2026-04-18 09:50 | 16.87563 | -22.90423 | 7330 ft | 292 kts | 80° |
| 2026-04-18 09:50 | 16.87967 | -22.88302 | 8054 ft | 300 kts | 79° |
| 2026-04-18 09:51 | 16.88396 | -22.86159 | 8912 ft | 304 kts | 79° |
| 2026-04-18 09:51 | 16.88843 | -22.83981 | 9754 ft | 309 kts | 79° |
| 2026-04-18 09:51 | 16.89306 | -22.81760 | 10404 ft | 320 kts | 79° |
| 2026-04-18 09:51 | 16.89800 | -22.79422 | 10777 ft | 339 kts | 79° |
| 2026-04-18 09:52 | 16.90344 | -22.76974 | 11228 ft | 354 kts | 73° |
| 2026-04-18 09:52 | 16.91518 | -22.74711 | 11959 ft | 357 kts | 50° |
| 2026-04-18 09:52 | 16.93204 | -22.72785 | 12625 ft | 363 kts | 46° |
| 2026-04-18 09:52 | 16.94944 | -22.70854 | 13332 ft | 366 kts | 46° |
| 2026-04-18 09:53 | 16.96709 | -22.68913 | 14007 ft | 371 kts | 46° |
| 2026-04-18 09:53 | 16.98479 | -22.66976 | 14577 ft | 376 kts | 45° |
| 2026-04-18 09:53 | 17.00296 | -22.64991 | 15178 ft | 380 kts | 45° |
| 2026-04-18 09:53 | 17.02136 | -22.62981 | 15737 ft | 385 kts | 45° |
| 2026-04-18 09:54 | 17.03997 | -22.60949 | 16306 ft | 389 kts | 45° |
| 2026-04-18 09:54 | 17.05880 | -22.58893 | 16857 ft | 394 kts | 45° |
| 2026-04-18 09:54 | 17.07785 | -22.56811 | 17406 ft | 398 kts | 45° |
| 2026-04-18 09:54 | 17.09710 | -22.54707 | 17923 ft | 403 kts | 45° |
| 2026-04-18 09:55 | 17.11656 | -22.52580 | 18411 ft | 407 kts | 45° |
| 2026-04-18 09:55 | 17.13624 | -22.50428 | 18857 ft | 411 kts | 44° |
| 2026-04-18 09:55 | 17.15608 | -22.48258 | 19311 ft | 415 kts | 44° |
| 2026-04-18 09:55 | 17.17610 | -22.46067 | 19737 ft | 419 kts | 44° |
| 2026-04-18 09:56 | 17.19626 | -22.43860 | 20193 ft | 422 kts | 44° |
| 2026-04-18 09:56 | 17.21663 | -22.41629 | 20638 ft | 426 kts | 43° |
| 2026-04-18 09:56 | 17.23714 | -22.39383 | 21081 ft | 429 kts | 43° |
| 2026-04-18 09:56 | 17.25784 | -22.37114 | 21526 ft | 433 kts | 43° |
| 2026-04-18 09:57 | 17.27874 | -22.34823 | 21976 ft | 436 kts | 43° |
| 2026-04-18 09:57 | 17.29976 | -22.32517 | 22411 ft | 440 kts | 43° |
| 2026-04-18 09:57 | 17.32099 | -22.30189 | 22866 ft | 444 kts | 43° |
| 2026-04-18 09:57 | 17.34234 | -22.27845 | 23318 ft | 447 kts | 42° |
| 2026-04-18 09:58 | 17.35661 | -22.26279 | 23606 ft | 449 kts | 42° |
| 2026-04-18 09:58 | 17.37829 | -22.23899 | 23980 ft | 453 kts | 42° |
| 2026-04-18 09:58 | 17.40010 | -22.21504 | 24378 ft | 456 kts | 41° |
| 2026-04-18 09:58 | 17.42204 | -22.19092 | 24768 ft | 459 kts | 41° |
| 2026-04-18 09:59 | 17.44418 | -22.16659 | 25146 ft | 463 kts | 41° |
| 2026-04-18 09:59 | 17.46645 | -22.14209 | 25518 ft | 466 kts | 41° |
| 2026-04-18 09:59 | 17.48889 | -22.11740 | 25889 ft | 469 kts | 40° |
| 2026-04-18 10:00 | 17.53421 | -22.06753 | 26597 ft | 476 kts | 40° |
| 2026-04-18 10:00 | 17.55709 | -22.04231 | 26948 ft | 479 kts | 40° |
| 2026-04-18 10:00 | 17.58009 | -22.01697 | 27294 ft | 482 kts | 40° |
| 2026-04-18 10:00 | 17.60330 | -21.99140 | 27638 ft | 485 kts | 40° |
| 2026-04-18 10:01 | 17.62660 | -21.96571 | 27977 ft | 488 kts | 39° |
| 2026-04-18 10:01 | 17.65004 | -21.93979 | 28302 ft | 492 kts | 40° |
| 2026-04-18 10:01 | 17.67352 | -21.91358 | 28623 ft | 495 kts | 40° |
| 2026-04-18 10:01 | 17.69717 | -21.88722 | 28935 ft | 498 kts | 39° |
| 2026-04-18 10:02 | 17.72093 | -21.86073 | 29253 ft | 501 kts | 39° |
| 2026-04-18 10:02 | 17.74487 | -21.83402 | 29572 ft | 504 kts | 39° |
| 2026-04-18 10:02 | 17.76897 | -21.80715 | 29866 ft | 507 kts | 39° |
| 2026-04-18 10:02 | 17.79319 | -21.78011 | 30148 ft | 509 kts | 39° |
| 2026-04-18 10:03 | 17.81751 | -21.75295 | 30412 ft | 512 kts | 39° |
| 2026-04-18 10:03 | 17.84192 | -21.72567 | 30687 ft | 514 kts | 39° |
| 2026-04-18 10:03 | 17.86642 | -21.69829 | 30973 ft | 515 kts | 39° |
| 2026-04-18 10:03 | 17.89100 | -21.67081 | 31255 ft | 517 kts | 39° |
| 2026-04-18 10:04 | 17.91564 | -21.64325 | 31532 ft | 519 kts | 39° |
| 2026-04-18 10:04 | 17.94039 | -21.61556 | 31784 ft | 521 kts | 38° |
| 2026-04-18 10:04 | 17.96516 | -21.58782 | 32073 ft | 523 kts | 38° |
| 2026-04-18 10:04 | 17.99010 | -21.55989 | 32349 ft | 524 kts | 38° |
| 2026-04-18 10:05 | 18.01504 | -21.53193 | 32640 ft | 525 kts | 38° |
| 2026-04-18 10:05 | 18.03999 | -21.50397 | 32986 ft | 525 kts | 38° |
| 2026-04-18 10:05 | 18.06496 | -21.47597 | 33352 ft | 524 kts | 38° |
| 2026-04-18 10:05 | 18.08985 | -21.44803 | 33720 ft | 523 kts | 37° |
| 2026-04-18 10:06 | 18.11468 | -21.42016 | 34093 ft | 522 kts | 37° |
| 2026-04-18 10:06 | 18.13917 | -21.39265 | 34396 ft | 521 kts | 37° |
| 2026-04-18 10:06 | 18.16389 | -21.36488 | 34710 ft | 520 kts | 37° |
| 2026-04-18 10:06 | 18.18858 | -21.33711 | 35015 ft | 519 kts | 37° |
| 2026-04-18 10:07 | 18.21326 | -21.30937 | 35331 ft | 518 kts | 37° |
| 2026-04-18 10:07 | 18.23786 | -21.28170 | 35599 ft | 518 kts | 37° |
| 2026-04-18 10:07 | 18.26242 | -21.25405 | 35876 ft | 517 kts | 37° |
| 2026-04-18 10:07 | 18.28698 | -21.22639 | 36152 ft | 516 kts | 37° |
| 2026-04-18 10:08 | 18.31149 | -21.19878 | 36437 ft | 515 kts | 36° |
| 2026-04-18 10:08 | 18.33591 | -21.17125 | 36695 ft | 515 kts | 36° |
| 2026-04-18 10:08 | 18.36033 | -21.14372 | 36938 ft | 514 kts | 36° |
| 2026-04-18 10:09 | 18.40908 | -21.08870 | 36964 ft | 511 kts | 36° |
| 2026-04-18 10:09 | 18.45753 | -21.03400 | 36974 ft | 511 kts | 36° |
| 2026-04-18 10:10 | 18.50603 | -20.97917 | 36971 ft | 512 kts | 36° |
| 2026-04-18 10:10 | 18.55459 | -20.92424 | 36960 ft | 512 kts | 36° |
| 2026-04-18 10:11 | 18.60310 | -20.86931 | 36967 ft | 512 kts | 36° |
| 2026-04-18 10:11 | 18.65166 | -20.81427 | 36975 ft | 513 kts | 36° |
| 2026-04-18 10:12 | 18.70019 | -20.75921 | 36973 ft | 513 kts | 36° |
| 2026-04-18 10:12 | 18.74877 | -20.70406 | 36977 ft | 513 kts | 36° |
| 2026-04-18 10:13 | 18.79736 | -20.64883 | 36970 ft | 513 kts | 36° |
| 2026-04-18 10:13 | 18.84593 | -20.59360 | 36964 ft | 514 kts | 36° |
| 2026-04-18 10:14 | 18.89453 | -20.53826 | 36970 ft | 514 kts | 36° |
| 2026-04-18 10:14 | 18.94312 | -20.48288 | 36969 ft | 514 kts | 36° |
| 2026-04-18 10:15 | 18.99170 | -20.42748 | 36968 ft | 514 kts | 37° |
| 2026-04-18 10:15 | 19.03995 | -20.37239 | 36965 ft | 514 kts | 36° |
| 2026-04-18 10:16 | 19.08855 | -20.31686 | 36966 ft | 514 kts | 36° |
| 2026-04-18 10:16 | 19.13713 | -20.26129 | 36965 ft | 515 kts | 37° |
| 2026-04-18 10:17 | 19.18567 | -20.20571 | 36962 ft | 515 kts | 37° |
| 2026-04-18 10:17 | 19.23429 | -20.15000 | 36963 ft | 515 kts | 37° |
| 2026-04-18 10:18 | 19.28285 | -20.09431 | 36964 ft | 515 kts | 37° |
| 2026-04-18 10:18 | 19.33146 | -20.03850 | 36962 ft | 515 kts | 37° |
| 2026-04-18 10:19 | 19.38003 | -19.98269 | 36959 ft | 515 kts | 37° |
| 2026-04-18 10:19 | 19.42861 | -19.92681 | 36964 ft | 515 kts | 37° |
| 2026-04-18 10:20 | 19.47718 | -19.87089 | 36959 ft | 516 kts | 37° |
| 2026-04-18 10:20 | 19.52571 | -19.81498 | 36958 ft | 516 kts | 37° |
| 2026-04-18 10:21 | 19.57430 | -19.75895 | 36964 ft | 516 kts | 37° |
| 2026-04-18 10:21 | 19.59700 | -19.72912 | 36918 ft | 530 kts | 50° |
| 2026-04-18 10:21 | 19.61460 | -19.69444 | 36979 ft | 535 kts | 54° |
| 2026-04-18 10:22 | 19.65005 | -19.62478 | 36967 ft | 537 kts | 54° |
| 2026-04-18 10:22 | 19.68504 | -19.55480 | 36944 ft | 537 kts | 54° |
| 2026-04-18 10:23 | 19.71999 | -19.48469 | 36943 ft | 537 kts | 54° |
| 2026-04-18 10:23 | 19.75485 | -19.41469 | 36955 ft | 537 kts | 54° |
| 2026-04-18 10:24 | 19.78972 | -19.34459 | 36953 ft | 537 kts | 54° |
| 2026-04-18 10:24 | 19.82453 | -19.27452 | 36960 ft | 536 kts | 54° |
| 2026-04-18 10:25 | 19.85905 | -19.20494 | 36953 ft | 536 kts | 54° |
| 2026-04-18 10:25 | 19.89379 | -19.13483 | 36961 ft | 536 kts | 54° |
| 2026-04-18 10:26 | 19.92850 | -19.06469 | 36956 ft | 536 kts | 55° |
| 2026-04-18 10:26 | 19.96311 | -18.99468 | 36960 ft | 535 kts | 55° |
| 2026-04-18 10:27 | 19.99771 | -18.92460 | 36952 ft | 535 kts | 55° |
| 2026-04-18 10:27 | 20.03223 | -18.85460 | 36954 ft | 535 kts | 55° |
| 2026-04-18 10:28 | 20.06671 | -18.78458 | 36956 ft | 534 kts | 55° |
| 2026-04-18 10:28 | 20.10111 | -18.71464 | 36954 ft | 533 kts | 55° |
| 2026-04-18 10:29 | 20.13547 | -18.64472 | 36955 ft | 533 kts | 55° |
| 2026-04-18 10:29 | 20.16978 | -18.57478 | 36952 ft | 532 kts | 55° |
| 2026-04-18 10:30 | 20.20398 | -18.50499 | 36948 ft | 532 kts | 56° |
| 2026-04-18 10:30 | 20.23791 | -18.43566 | 36941 ft | 531 kts | 56° |
| 2026-04-18 10:31 | 20.27203 | -18.36588 | 36944 ft | 531 kts | 56° |
| 2026-04-18 10:31 | 20.30605 | -18.29621 | 36939 ft | 530 kts | 56° |
| 2026-04-18 10:32 | 20.34002 | -18.22652 | 36940 ft | 530 kts | 56° |
| 2026-04-18 10:32 | 20.37396 | -18.15684 | 36938 ft | 529 kts | 56° |
| 2026-04-18 10:33 | 20.40780 | -18.08727 | 36940 ft | 529 kts | 56° |
| 2026-04-18 10:33 | 20.44161 | -18.01766 | 36936 ft | 528 kts | 56° |
| 2026-04-18 10:34 | 20.47536 | -17.94810 | 36934 ft | 528 kts | 56° |
| 2026-04-18 10:34 | 20.50905 | -17.87858 | 36930 ft | 527 kts | 56° |
| 2026-04-18 10:35 | 20.54263 | -17.80919 | 36927 ft | 527 kts | 56° |
| 2026-04-18 10:35 | 20.57618 | -17.73977 | 36926 ft | 526 kts | 56° |
| 2026-04-18 10:36 | 20.60967 | -17.67041 | 36926 ft | 525 kts | 57° |
| 2026-04-18 10:36 | 20.64313 | -17.60101 | 36924 ft | 525 kts | 57° |
| 2026-04-18 10:37 | 20.67646 | -17.53180 | 36920 ft | 524 kts | 57° |
| 2026-04-18 10:37 | 20.70978 | -17.46250 | 36918 ft | 524 kts | 57° |
| 2026-04-18 10:38 | 20.74281 | -17.39373 | 36918 ft | 523 kts | 57° |
| 2026-04-18 10:38 | 20.77598 | -17.32459 | 36915 ft | 523 kts | 57° |
| 2026-04-18 10:39 | 20.80908 | -17.25552 | 36917 ft | 522 kts | 57° |
| 2026-04-18 10:39 | 20.84216 | -17.18641 | 36913 ft | 522 kts | 57° |
| 2026-04-18 10:40 | 20.87516 | -17.11738 | 36915 ft | 521 kts | 57° |
| 2026-04-18 10:40 | 20.91427 | -17.05404 | 36911 ft | 498 kts | 36° |
| 2026-04-18 10:40 | 20.94080 | -17.03120 | 36891 ft | 481 kts | 20° |
| 2026-04-18 10:41 | 20.97033 | -17.01616 | 36930 ft | 466 kts | 12° |
| 2026-04-18 10:41 | 21.03093 | -16.99084 | 36904 ft | 467 kts | 10° |
| 2026-04-18 10:42 | 21.09195 | -16.96689 | 36912 ft | 466 kts | 10° |
| 2026-04-18 10:42 | 21.15290 | -16.94339 | 36913 ft | 466 kts | 10° |
| 2026-04-18 10:43 | 21.21395 | -16.91989 | 36916 ft | 466 kts | 10° |
| 2026-04-18 10:43 | 21.27503 | -16.89637 | 36915 ft | 466 kts | 10° |
| 2026-04-18 10:44 | 21.33600 | -16.87269 | 36917 ft | 467 kts | 11° |
| 2026-04-18 10:44 | 21.39683 | -16.84831 | 36915 ft | 467 kts | 11° |
| 2026-04-18 10:45 | 21.45778 | -16.82395 | 36920 ft | 467 kts | 11° |
| 2026-04-18 10:45 | 21.51864 | -16.79960 | 36914 ft | 467 kts | 12° |
| 2026-04-18 10:46 | 21.57951 | -16.77523 | 36920 ft | 467 kts | 12° |
| 2026-04-18 10:46 | 21.63010 | -16.75496 | 36920 ft | 467 kts | 12° |
| 2026-04-18 10:47 | 21.70086 | -16.72658 | 36920 ft | 467 kts | 12° |
| 2026-04-18 10:47 | 21.76174 | -16.70214 | 36923 ft | 467 kts | 12° |
| 2026-04-18 10:48 | 21.81271 | -16.68167 | 36922 ft | 466 kts | 12° |
| 2026-04-18 10:48 | 21.87317 | -16.65786 | 36922 ft | 466 kts | 12° |
| 2026-04-18 10:49 | 21.93455 | -16.63403 | 36918 ft | 466 kts | 12° |
| 2026-04-18 10:49 | 21.99544 | -16.61033 | 36919 ft | 465 kts | 12° |
| 2026-04-18 10:50 | 22.05590 | -16.58678 | 36922 ft | 465 kts | 12° |
| 2026-04-18 10:50 | 22.11679 | -16.56304 | 36924 ft | 465 kts | 12° |
| 2026-04-18 10:51 | 22.17764 | -16.53929 | 36922 ft | 465 kts | 12° |
| 2026-04-18 10:51 | 22.23846 | -16.51553 | 36918 ft | 465 kts | 13° |